Time;durP1;ratioP1;P1;durP2;ratioP2;P2;SDS_P1;SDS_P2;PMS_P1;PMS_P2;Temp;Humidity;BMP_temperature;BMP_pressure;BME280_temperature;BME280_humidity;BME280_pressure;Samples;Min_cycle;Max_cycle;Signal;HPM_P1;HPM_P2
2021/10/23 00:00:21;;;;;;;11.25;7.90;;;;;;;9.69;87.51;98850.16;5025111;28;20139;-57
2021/10/23 00:02:46;;;;;;;13.85;7.70;;;;;;;9.60;87.47;98861.31;5025828;28;20033;-57
2021/10/23 00:05:12;;;;;;;12.65;7.85;;;;;;;9.48;87.68;98846.81;5018493;28;20028;-58
2021/10/23 00:07:37;;;;;;;11.75;7.88;;;;;;;9.53;87.89;98840.28;5019446;28;20025;-57
2021/10/23 00:10:04;;;;;;;11.95;7.65;;;;;;;9.65;87.88;98848.78;5021414;28;20036;-58
2021/10/23 00:12:30;;;;;;;11.50;7.72;;;;;;;9.66;87.91;98855.63;5025866;28;20024;-57
2021/10/23 00:14:56;;;;;;;11.85;7.38;;;;;;;9.63;87.23;98851.50;4911955;28;20026;-57
2021/10/23 00:17:23;;;;;;;10.93;7.38;;;;;;;9.66;88.02;98854.81;5022060;28;20025;-56
2021/10/23 00:19:48;;;;;;;11.75;7.50;;;;;;;9.68;87.97;98847.69;5023916;28;20030;-57
2021/10/23 00:25:36;;;;;;;10.77;7.10;;;;;;;9.64;89.48;98844.53;5010173;28;20041;-57
2021/10/23 00:28:02;;;;;;;9.68;5.63;;;;;;;9.67;89.64;98840.84;5018180;28;20025;-58
2021/10/23 00:30:27;;;;;;;10.25;5.93;;;;;;;9.60;89.85;98844.00;5002407;28;20025;-56
2021/10/23 00:32:54;;;;;;;10.25;6.22;;;;;;;9.61;90.84;98837.00;5011673;28;20017;-57
2021/10/23 00:38:42;;;;;;;11.20;6.18;;;;;;;9.27;89.67;98792.38;5010812;28;20227;-56
2021/10/23 00:41:07;;;;;;;11.00;5.80;;;;;;;9.57;89.58;98831.25;5031968;28;20097;-56
2021/10/23 00:43:36;;;;;;;11.20;6.18;;;;;;;9.30;89.46;98805.09;5013843;28;20028;-58
2021/10/23 00:46:02;;;;;;;11.30;7.80;;;;;;;9.59;88.86;98839.75;4963007;28;20036;-58
2021/10/23 00:48:28;;;;;;;12.55;6.68;;;;;;;9.55;88.09;98838.38;5025983;28;20087;-57
2021/10/23 00:50:53;;;;;;;13.13;7.40;;;;;;;9.55;87.94;98843.56;5022364;28;20042;-56
2021/10/23 00:53:23;;;;;;;10.20;6.75;;;;;;;9.52;88.06;98853.38;5027296;28;20392;-58
2021/10/23 00:55:49;;;;;;;11.32;7.15;;;;;;;9.13;87.70;98806.56;5021687;28;20076;-56
2021/10/23 00:58:15;;;;;;;11.13;6.75;;;;;;;9.36;88.54;98848.69;5028190;28;20033;-58
2021/10/23 01:00:40;;;;;;;11.38;6.82;;;;;;;9.09;88.50;98812.94;5012219;28;20573;-58
2021/10/23 01:03:06;;;;;;;10.60;6.60;;;;;;;9.39;87.22;98851.84;5019984;28;20359;-55
2021/10/23 01:05:31;;;;;;;11.48;7.05;;;;;;;9.33;87.04;98842.00;5018709;28;20121;-57
2021/10/23 01:07:58;;;;;;;8.65;6.00;;;;;;;9.47;86.40;98865.94;5015942;28;20468;-57
2021/10/23 01:10:24;;;;;;;8.65;5.32;;;;;;;9.41;86.49;98860.31;5018099;28;20025;-57
2021/10/23 01:12:49;;;;;;;9.68;6.05;;;;;;;9.07;87.66;98826.03;5013876;28;20041;-58
2021/10/23 01:15:35;;;;;;;11.70;6.25;;;;;;;9.14;87.92;98854.88;5010965;28;20033;-57
2021/10/23 01:18:03;;;;;;;9.95;6.20;;;;;;;9.04;87.79;98849.66;5000506;28;20705;-57
2021/10/23 01:20:31;;;;;;;9.27;6.20;;;;;;;8.73;87.59;98826.28;5013568;28;20030;-57
2021/10/23 01:22:56;;;;;;;9.13;5.75;;;;;;;9.11;87.81;98868.94;5019298;28;20042;-57
2021/10/23 01:25:24;;;;;;;9.32;5.85;;;;;;;9.17;87.37;98872.78;5019106;28;20025;-57
2021/10/23 01:27:54;;;;;;;10.43;6.40;;;;;;;9.21;86.69;98868.97;5030563;28;20480;-56
2021/10/23 01:30:19;;;;;;;10.05;5.82;;;;;;;9.12;87.60;98870.56;5027793;28;20316;-57
2021/10/23 01:32:45;;;;;;;9.70;6.00;;;;;;;8.88;87.00;98850.09;4955753;28;20037;-56
2021/10/23 01:35:10;;;;;;;9.25;5.90;;;;;;;8.75;87.39;98829.56;5016759;28;20823;-57
2021/10/23 01:37:42;;;;;;;10.18;5.72;;;;;;;8.58;87.05;98812.81;5011149;28;20570;-57
2021/10/23 01:40:11;;;;;;;10.68;6.60;;;;;;;8.84;87.68;98867.69;5030999;28;20017;-57
2021/10/23 01:42:36;;;;;;;10.98;6.88;;;;;;;8.95;87.20;98871.97;5026142;28;20133;-57
2021/10/23 01:45:03;;;;;;;11.52;7.05;;;;;;;8.94;87.03;98869.50;5014264;28;20028;-57
2021/10/23 01:47:29;;;;;;;11.82;7.00;;;;;;;8.90;86.58;98866.34;5016355;28;20461;-57
2021/10/23 01:49:54;;;;;;;11.23;6.70;;;;;;;8.78;87.00;98849.22;5024972;28;20030;-56
2021/10/23 01:52:19;;;;;;;8.68;6.07;;;;;;;8.80;87.84;98866.31;5016010;28;20470;-56
2021/10/23 01:54:45;;;;;;;10.88;6.38;;;;;;;8.82;88.13;98863.59;5029590;28;20030;-57
2021/10/23 01:57:10;;;;;;;11.32;6.55;;;;;;;8.88;87.81;98865.66;5025457;28;20029;-56
2021/10/23 01:59:36;;;;;;;12.13;7.35;;;;;;;8.84;88.19;98859.91;5018648;28;20080;-57
2021/10/23 02:02:02;;;;;;;11.57;7.13;;;;;;;8.85;88.29;98852.94;5023867;28;20034;-58
2021/10/23 02:04:28;;;;;;;10.27;6.40;;;;;;;8.85;87.21;98866.75;5025760;28;20023;-57
2021/10/23 02:06:53;;;;;;;11.20;6.20;;;;;;;8.78;87.67;98852.66;5021818;28;20037;-57
2021/10/23 02:09:19;;;;;;;9.77;6.50;;;;;;;8.76;87.60;98866.66;5024227;28;20025;-57
2021/10/23 02:11:45;;;;;;;9.85;6.30;;;;;;;8.81;86.57;98861.94;5017699;28;20720;-57
2021/10/23 02:14:10;;;;;;;10.50;6.00;;;;;;;8.71;87.62;98853.28;5031591;28;20605;-57
2021/10/23 02:16:36;;;;;;;10.77;5.70;;;;;;;8.95;86.84;98876.34;5028050;28;20500;-57
2021/10/23 02:19:01;;;;;;;11.30;6.15;;;;;;;8.95;85.75;98879.75;5021702;28;20024;-57
2021/10/23 02:21:27;;;;;;;9.13;5.85;;;;;;;8.82;86.65;98872.19;5018401;28;20033;-58
2021/10/23 02:23:52;;;;;;;9.65;5.53;;;;;;;8.83;86.66;98881.63;5023847;28;20033;-57
2021/10/23 02:26:18;;;;;;;9.40;5.75;;;;;;;8.31;87.48;98826.25;5020757;28;20044;-57
2021/10/23 02:28:43;;;;;;;10.82;6.22;;;;;;;8.24;89.40;98880.31;5015736;28;20385;-56
2021/10/23 02:31:08;;;;;;;9.32;5.78;;;;;;;8.14;88.77;98832.78;5024760;28;20092;-57
2021/10/23 02:33:34;;;;;;;9.43;6.05;;;;;;;8.33;88.08;98837.28;5004664;28;20037;-57
2021/10/23 02:35:59;;;;;;;11.05;6.90;;;;;;;8.25;87.59;98857.81;5015424;28;20092;-56
2021/10/23 02:38:25;;;;;;;15.48;6.32;;;;;;;8.53;87.95;98889.31;5016851;28;20548;-57
2021/10/23 02:40:50;;;;;;;10.05;6.13;;;;;;;8.22;88.25;98845.13;5019292;28;21132;-58
2021/10/23 02:43:15;;;;;;;11.82;6.75;;;;;;;8.49;87.86;98886.16;5019960;28;20029;-58
2021/10/23 02:45:41;;;;;;;15.10;7.55;;;;;;;8.35;88.47;98863.91;5018459;28;20037;-58
2021/10/23 02:48:06;;;;;;;12.15;7.50;;;;;;;8.54;88.22;98885.75;5023106;28;20029;-56
2021/10/23 02:50:32;;;;;;;12.88;7.47;;;;;;;8.49;87.96;98890.47;5025355;28;20556;-56
2021/10/23 02:52:57;;;;;;;11.65;7.07;;;;;;;8.33;88.33;98844.25;5020023;28;20026;-58
2021/10/23 02:55:22;;;;;;;11.85;7.38;;;;;;;8.52;87.80;98885.88;5021856;28;20074;-57
2021/10/23 02:57:48;;;;;;;11.45;7.03;;;;;;;8.47;88.06;98888.03;5031376;28;20493;-57
2021/10/23 03:00:14;;;;;;;12.88;6.18;;;;;;;8.59;87.16;98881.03;5030498;28;20025;-58
2021/10/23 03:02:40;;;;;;;12.60;6.97;;;;;;;8.65;87.70;98899.50;5009642;28;20400;-56
2021/10/23 03:05:06;;;;;;;12.77;7.00;;;;;;;8.61;86.81;98900.69;5016140;28;20029;-57
2021/10/23 03:07:32;;;;;;;12.75;7.65;;;;;;;8.20;86.58;98852.19;5003790;28;20033;-58
2021/10/23 03:09:58;;;;;;;12.32;6.93;;;;;;;8.56;87.11;98909.78;5025662;28;20018;-57
2021/10/23 03:12:23;;;;;;;10.90;6.50;;;;;;;8.55;86.01;98908.97;5030016;28;20037;-56
2021/10/23 03:14:49;;;;;;;10.57;6.53;;;;;;;8.55;86.02;98910.75;5028132;28;20129;-57
2021/10/23 03:17:15;;;;;;;12.05;7.10;;;;;;;8.47;86.53;98906.19;5018500;28;20037;-57
2021/10/23 03:19:40;;;;;;;10.77;6.88;;;;;;;8.37;86.04;98906.06;5026465;28;20075;-58
2021/10/23 03:22:06;;;;;;;12.43;5.88;;;;;;;8.43;86.62;98905.59;5019783;28;20448;-56
2021/10/23 03:24:31;;;;;;;8.88;5.65;;;;;;;8.05;87.08;98877.56;5018443;28;20736;-57
2021/10/23 03:26:57;;;;;;;10.25;6.05;;;;;;;8.16;87.21;98918.13;5020926;28;20056;-57
2021/10/23 03:29:22;;;;;;;9.48;5.78;;;;;;;8.30;86.55;98917.84;5017600;28;20032;-55
2021/10/23 03:31:47;;;;;;;11.43;6.95;;;;;;;8.26;86.15;98921.63;5016403;28;20064;-56
2021/10/23 03:34:13;;;;;;;9.30;6.10;;;;;;;8.25;86.10;98918.22;5030883;28;20025;-57
2021/10/23 03:36:39;;;;;;;11.93;7.00;;;;;;;8.33;85.26;98929.75;5026394;28;20546;-57
2021/10/23 03:39:04;;;;;;;10.30;6.70;;;;;;;8.33;86.09;98930.56;5028703;28;20075;-56
2021/10/23 03:41:30;;;;;;;11.98;6.60;;;;;;;8.36;85.19;98926.91;5012191;28;20045;-56
2021/10/23 03:43:55;;;;;;;12.82;6.45;;;;;;;8.32;85.33;98931.50;5022668;28;20037;-57
2021/10/23 03:46:21;;;;;;;11.45;6.00;;;;;;;8.12;85.93;98909.78;5011895;28;20662;-57
2021/10/23 03:48:46;;;;;;;10.18;6.45;;;;;;;8.23;85.79;98937.41;5019588;28;20033;-56
2021/10/23 03:51:11;;;;;;;12.05;6.50;;;;;;;8.13;86.60;98934.75;5024300;28;20040;-58
2021/10/23 03:53:37;;;;;;;11.90;6.28;;;;;;;7.97;85.71;98891.09;5028188;28;20025;-56
2021/10/23 03:56:03;;;;;;;12.18;6.40;;;;;;;7.60;86.06;98855.16;5021637;28;20147;-56
2021/10/23 03:58:28;;;;;;;10.30;6.43;;;;;;;7.94;87.11;98925.03;5008142;28;20045;-58
2021/10/23 04:00:54;;;;;;;9.15;5.63;;;;;;;8.05;87.20;98940.53;5023404;28;20069;-56
2021/10/23 04:03:19;;;;;;;8.80;5.55;;;;;;;8.06;86.82;98936.97;5027005;28;20025;-56
2021/10/23 04:05:44;;;;;;;9.07;5.68;;;;;;;7.68;86.81;98902.00;5022385;28;20037;-57
2021/10/23 04:08:10;;;;;;;10.30;5.75;;;;;;;8.02;86.41;98952.91;5023154;28;20593;-55
2021/10/23 04:10:35;;;;;;;8.13;5.22;;;;;;;8.06;86.11;98956.88;5025230;28;20116;-56
2021/10/23 04:13:01;;;;;;;10.45;5.65;;;;;;;8.16;85.87;98950.06;5026436;28;20029;-57
2021/10/23 04:15:27;;;;;;;11.18;5.80;;;;;;;8.24;85.36;98957.22;5016254;28;20272;-57
2021/10/23 04:17:52;;;;;;;9.77;5.75;;;;;;;8.17;84.94;98956.84;5018837;28;20049;-57
2021/10/23 04:20:18;;;;;;;10.43;5.60;;;;;;;8.11;85.33;98957.34;5016856;28;21241;-56
2021/10/23 04:22:43;;;;;;;9.45;5.43;;;;;;;8.01;85.84;98959.00;5031761;28;20031;-58
2021/10/23 04:25:09;;;;;;;9.10;5.57;;;;;;;7.84;85.22;98924.06;5021651;28;20036;-57
2021/10/23 04:27:34;;;;;;;9.85;5.18;;;;;;;7.91;85.82;98940.78;5022753;28;20211;-56
2021/10/23 04:30:00;;;;;;;11.65;5.50;;;;;;;8.07;85.71;98971.50;5020857;28;20087;-57
2021/10/23 04:32:25;;;;;;;10.38;5.10;;;;;;;7.97;85.41;98976.53;5026179;28;20685;-57
2021/10/23 04:34:51;;;;;;;11.95;5.63;;;;;;;7.99;85.34;98969.47;5020426;28;20041;-56
2021/10/23 04:37:17;;;;;;;11.23;5.15;;;;;;;7.91;85.10;98971.84;5023731;28;20622;-57
2021/10/23 04:39:42;;;;;;;10.18;4.82;;;;;;;7.79;86.46;98980.56;5019464;28;20025;-56
2021/10/23 04:42:08;;;;;;;10.48;6.22;;;;;;;7.78;86.49;98977.16;5004778;28;20030;-56
2021/10/23 04:44:33;;;;;;;11.02;5.35;;;;;;;7.72;87.22;98982.81;5016993;28;20030;-56
2021/10/23 04:46:58;;;;;;;8.15;5.10;;;;;;;7.56;87.39;98946.09;5026584;28;20042;-57
2021/10/23 04:49:24;;;;;;;9.30;5.63;;;;;;;7.73;86.75;98983.63;5027890;28;20612;-56
2021/10/23 04:51:49;;;;;;;8.98;5.50;;;;;;;7.67;87.30;98990.91;5034029;28;20025;-56
2021/10/23 04:54:15;;;;;;;9.20;5.32;;;;;;;7.64;87.46;98992.91;5006366;28;20044;-56
2021/10/23 04:56:40;;;;;;;9.57;5.53;;;;;;;7.67;88.87;98988.31;5027466;28;20468;-57
2021/10/23 04:59:06;;;;;;;10.18;5.47;;;;;;;7.83;88.79;98987.13;5027096;28;20029;-57
2021/10/23 05:01:31;;;;;;;9.15;5.15;;;;;;;7.84;88.54;98973.28;5029729;28;20728;-56
2021/10/23 05:03:56;;;;;;;7.93;4.80;;;;;;;7.93;88.23;98982.91;5023622;28;20033;-56
2021/10/23 05:06:22;;;;;;;8.27;4.82;;;;;;;7.89;88.31;98978.91;5025615;28;20029;-56
2021/10/23 05:08:47;;;;;;;8.73;4.95;;;;;;;7.99;88.43;98992.78;5023015;28;20029;-57
2021/10/23 05:11:13;;;;;;;10.43;5.07;;;;;;;7.95;88.39;98969.84;5025772;28;20733;-56
2021/10/23 05:13:38;;;;;;;9.10;4.63;;;;;;;8.07;89.42;98992.22;5030597;28;20064;-55
2021/10/23 05:16:04;;;;;;;11.50;4.60;;;;;;;8.06;90.46;98991.38;5025034;28;20029;-57
2021/10/23 05:18:30;;;;;;;8.32;4.85;;;;;;;8.07;90.99;99000.81;5029521;28;20037;-57
2021/10/23 05:20:55;;;;;;;9.80;4.85;;;;;;;8.12;91.56;99000.44;5015092;28;20036;-57
2021/10/23 05:23:21;;;;;;;9.30;4.68;;;;;;;7.94;91.68;98952.66;5019419;28;20105;-56
2021/10/23 05:25:46;;;;;;;7.32;3.90;;;;;;;8.18;91.61;98988.78;5023733;28;20033;-56
2021/10/23 05:28:12;;;;;;;7.72;4.10;;;;;;;8.30;90.96;99000.75;5019931;28;20026;-57
2021/10/23 05:30:38;;;;;;;9.55;4.13;;;;;;;8.37;93.27;99001.94;5020803;28;20037;-57
2021/10/23 05:33:03;;;;;;;11.27;4.70;;;;;;;8.19;93.47;98970.50;5023049;28;20092;-56
2021/10/23 05:35:28;;;;;;;8.18;3.03;;;;;;;8.21;92.33;98976.41;5020404;28;20056;-57
2021/10/23 05:37:54;;;;;;;6.72;2.90;;;;;;;8.56;91.79;99016.03;5020078;28;20044;-56
2021/10/23 05:40:20;;;;;;;6.15;2.38;;;;;;;8.43;90.68;98972.13;5020985;28;20468;-56
2021/10/23 05:42:45;;;;;;;5.00;2.50;;;;;;;8.81;90.22;99027.88;5022024;28;20041;-56
2021/10/23 05:45:10;;;;;;;5.43;2.05;;;;;;;8.90;90.25;99037.50;5025902;28;20029;-56
2021/10/23 05:47:36;;;;;;;5.55;2.22;;;;;;;9.06;88.88;99033.69;5036008;28;20036;-57
2021/10/23 05:50:02;;;;;;;4.63;2.08;;;;;;;9.06;88.37;99029.31;5026331;28;20080;-57
2021/10/23 05:52:27;;;;;;;4.93;2.40;;;;;;;9.07;87.85;99020.56;5031332;28;20021;-56
2021/10/23 05:54:53;;;;;;;4.80;2.35;;;;;;;9.10;87.95;99030.72;5010616;28;20033;-57
2021/10/23 05:57:18;;;;;;;5.95;1.92;;;;;;;8.76;88.19;98985.94;5023019;28;20037;-57
2021/10/23 05:59:46;;;;;;;5.43;2.15;;;;;;;8.72;88.73;98995.72;5022148;28;20026;-57
2021/10/23 06:02:33;;;;;;;5.38;2.10;;;;;;;8.63;88.50;98986.94;5020562;28;20059;-57
2021/10/23 06:04:59;;;;;;;4.50;1.90;;;;;;;9.11;87.36;99039.31;5021794;28;20073;-56
2021/10/23 06:07:27;;;;;;;7.20;2.40;;;;;;;9.10;87.32;99053.25;5024811;28;20538;-57
2021/10/23 06:10:27;;;;;;;5.40;2.40;;;;;;;9.14;86.70;99055.44;5027260;28;20044;-56
2021/10/23 06:12:52;;;;;;;;;;;;;;;9.15;86.67;99064.06;4946935;28;20037;-56
2021/10/23 06:15:18;;;;;;;5.60;2.38;;;;;;;9.13;87.29;99060.78;5023097;28;20092;-57
2021/10/23 06:17:43;;;;;;;5.18;2.30;;;;;;;8.80;87.54;99021.06;5028130;28;20063;-57
2021/10/23 06:20:09;;;;;;;5.60;2.10;;;;;;;9.02;87.88;99072.03;5011608;28;20034;-56
2021/10/23 06:22:35;;;;;;;4.65;2.25;;;;;;;9.05;88.00;99087.31;5020232;28;20022;-56
2021/10/23 06:25:00;;;;;;;4.85;2.20;;;;;;;9.08;87.16;99088.88;5015548;28;20033;-56
2021/10/23 06:27:26;;;;;;;4.18;1.85;;;;;;;8.87;86.71;99066.31;5029305;28;20119;-56
2021/10/23 06:29:51;;;;;;;5.35;1.92;;;;;;;8.72;87.20;99055.34;5024110;28;20033;-57
2021/10/23 06:35:39;;;;;;;4.60;2.00;;;;;;;9.15;85.84;99126.34;5019364;28;20086;-56
2021/10/23 06:38:04;;;;;;;5.22;1.95;;;;;;;9.17;85.43;99124.44;4993737;28;20496;-57
2021/10/23 06:40:30;;;;;;;4.15;1.92;;;;;;;9.26;85.64;99126.28;5011060;28;20037;-56
2021/10/23 06:42:55;;;;;;;7.28;2.30;;;;;;;9.26;85.55;99135.88;5019158;28;20029;-56
2021/10/23 06:45:21;;;;;;;4.10;1.75;;;;;;;9.22;84.89;99124.91;5016931;28;20447;-57
2021/10/23 06:47:46;;;;;;;4.55;1.90;;;;;;;9.28;84.49;99145.16;5013244;28;20125;-56
2021/10/23 06:50:13;;;;;;;4.32;1.80;;;;;;;9.24;84.79;99144.56;5022029;28;20036;-57
2021/10/23 06:52:39;;;;;;;5.07;2.20;;;;;;;9.26;84.68;99152.25;4943559;28;20045;-58
2021/10/23 06:55:05;;;;;;;6.03;2.35;;;;;;;9.22;84.98;99150.84;4974395;28;20030;-56
2021/10/23 06:57:31;;;;;;;6.07;2.40;;;;;;;9.28;85.09;99159.91;5017584;28;20673;-56
2021/10/23 06:59:56;;;;;;;5.53;2.55;;;;;;;9.20;85.24;99160.53;5015723;28;20053;-57
2021/10/23 07:02:22;;;;;;;5.78;2.33;;;;;;;9.19;84.96;99164.06;5028698;28;20087;-56
2021/10/23 07:04:47;;;;;;;5.20;2.22;;;;;;;9.22;85.84;99166.41;5025334;28;20037;-56
2021/10/23 07:07:13;;;;;;;8.40;3.00;;;;;;;9.14;85.86;99179.16;5021721;28;20068;-56
2021/10/23 07:09:38;;;;;;;6.20;3.10;;;;;;;9.17;85.72;99177.16;5012064;28;20036;-56
2021/10/23 07:12:04;;;;;;;6.07;2.80;;;;;;;9.15;85.23;99175.63;5026981;28;20025;-56
2021/10/23 07:14:29;;;;;;;5.47;2.47;;;;;;;9.13;84.78;99188.72;5027372;28;20120;-57
2021/10/23 07:16:55;;;;;;;6.07;2.30;;;;;;;9.18;84.88;99175.38;5022215;28;20041;-56
2021/10/23 07:19:20;;;;;;;5.68;2.42;;;;;;;9.16;83.75;99178.13;5026745;28;20067;-57
2021/10/23 07:21:46;;;;;;;5.75;2.47;;;;;;;9.20;84.24;99182.09;5012574;28;20069;-56
2021/10/23 07:24:11;;;;;;;6.65;3.55;;;;;;;9.18;84.00;99190.94;5017182;28;20027;-57
2021/10/23 07:26:37;;;;;;;5.63;2.80;;;;;;;9.20;83.41;99195.06;5024070;28;20035;-56
2021/10/23 07:29:03;;;;;;;5.70;2.03;;;;;;;8.97;83.08;99150.19;5020133;28;20115;-56
2021/10/23 07:31:29;;;;;;;6.25;2.20;;;;;;;9.34;81.90;99198.34;5015564;28;20041;-57
2021/10/23 07:33:54;;;;;;;6.78;1.98;;;;;;;9.37;82.16;99205.88;5026102;28;20056;-55
2021/10/23 07:36:20;;;;;;;5.45;2.38;;;;;;;9.33;81.30;99197.53;5020857;28;20037;-56
2021/10/23 07:38:46;;;;;;;5.10;2.35;;;;;;;9.12;80.53;99157.72;5020915;28;20072;-56
2021/10/23 07:41:12;;;;;;;8.77;2.20;;;;;;;9.34;81.72;99199.16;5031017;28;20033;-56
2021/10/23 07:43:38;;;;;;;4.95;1.92;;;;;;;9.40;82.00;99203.88;5022468;28;20431;-57
2021/10/23 07:46:03;;;;;;;5.15;2.17;;;;;;;9.20;81.99;99161.34;5022144;28;20029;-56
2021/10/23 07:48:29;;;;;;;5.30;2.60;;;;;;;9.35;82.45;99194.81;5033088;28;20031;-57
2021/10/23 07:50:54;;;;;;;7.00;4.00;;;;;;;9.39;82.66;99211.78;5027621;28;20136;-56
2021/10/23 07:53:20;;;;;;;12.43;7.53;;;;;;;9.10;82.58;99182.94;5027742;28;20022;-57
2021/10/23 07:55:47;;;;;;;11.85;6.50;;;;;;;9.25;82.35;99210.28;5013883;28;20265;-56
2021/10/23 07:58:13;;;;;;;7.97;4.30;;;;;;;9.35;80.48;99216.38;5023863;28;20032;-55
2021/10/23 08:00:39;;;;;;;4.95;2.58;;;;;;;9.42;79.34;99209.75;5016167;28;20046;-56
2021/10/23 08:03:05;;;;;;;6.68;2.10;;;;;;;9.17;78.73;99168.56;5013002;28;20037;-56
2021/10/23 08:05:33;;;;;;;4.75;2.20;;;;;;;9.53;78.18;99223.66;5021566;28;20037;-57
2021/10/23 08:07:59;;;;;;;5.93;1.98;;;;;;;9.41;78.21;99213.28;5028175;28;20094;-56
2021/10/23 08:10:26;;;;;;;4.78;2.25;;;;;;;9.57;78.04;99225.88;5022821;28;20025;-57
2021/10/23 08:12:52;;;;;;;4.43;1.77;;;;;;;9.58;77.49;99216.31;5024504;28;20516;-56
2021/10/23 08:15:17;;;;;;;5.13;1.90;;;;;;;9.54;77.14;99214.91;5025519;28;20029;-56
2021/10/23 08:17:43;;;;;;;5.63;1.73;;;;;;;9.65;77.26;99238.22;5024707;28;20249;-56
2021/10/23 08:20:10;;;;;;;5.72;1.77;;;;;;;9.66;77.12;99231.28;5019158;28;20034;-56
2021/10/23 08:22:35;;;;;;;4.40;1.90;;;;;;;9.64;76.23;99231.41;5026802;28;20060;-56
2021/10/23 08:25:03;;;;;;;4.80;2.20;;;;;;;9.64;76.91;99234.00;5019695;28;20202;-57
2021/10/23 08:27:31;;;;;;;4.43;1.80;;;;;;;9.67;76.35;99227.72;5016308;28;20033;-56
2021/10/23 08:30:02;;;;;;;4.07;1.60;;;;;;;9.66;76.10;99232.09;5011992;28;20089;-55
2021/10/23 08:32:27;;;;;;;6.00;1.95;;;;;;;9.63;76.49;99229.75;5015354;28;20419;-57
2021/10/23 08:34:55;;;;;;;4.97;2.08;;;;;;;9.47;76.21;99186.00;5020791;28;20033;-58
2021/10/23 08:37:21;;;;;;;4.30;1.70;;;;;;;9.51;75.54;99184.00;5020542;28;20043;-57
2021/10/23 08:39:46;;;;;;;4.40;1.70;;;;;;;9.81;74.62;99219.66;5018005;28;20030;-57
2021/10/23 08:42:12;;;;;;;5.00;2.00;;;;;;;9.77;78.39;99226.06;5014490;28;20029;-56
2021/10/23 08:44:40;;;;;;;5.05;2.08;;;;;;;9.75;77.74;99233.16;5016211;28;20049;-57
2021/10/23 08:47:06;;;;;;;4.70;1.75;;;;;;;9.77;75.85;99215.66;5018091;28;20041;-57
2021/10/23 08:49:33;;;;;;;4.18;1.67;;;;;;;9.85;76.92;99231.44;5027695;28;20025;-57
2021/10/23 08:51:59;;;;;;;4.53;1.83;;;;;;;9.87;77.77;99223.53;5017389;28;20044;-57
2021/10/23 08:54:25;;;;;;;5.35;1.83;;;;;;;9.98;78.27;99239.88;5028194;28;20025;-57
2021/10/23 08:56:50;;;;;;;4.63;1.95;;;;;;;10.01;79.19;99251.78;4911072;28;20067;-56
2021/10/23 08:59:16;;;;;;;5.63;2.20;;;;;;;10.03;79.22;99249.91;5014121;28;20140;-58
2021/10/23 09:01:41;;;;;;;5.10;2.20;;;;;;;10.06;79.96;99259.19;5017121;28;20133;-56
2021/10/23 09:04:07;;;;;;;5.55;2.83;;;;;;;10.10;80.39;99253.63;5010998;28;20025;-57
2021/10/23 09:06:39;;;;;;;8.25;5.90;;;;;;;10.10;80.13;99250.22;5026355;28;20112;-57
2021/10/23 09:09:09;;;;;;;6.85;4.35;;;;;;;10.11;79.11;99244.91;5024532;28;20029;-56
2021/10/23 09:11:45;;;;;;;8.63;2.88;;;;;;;9.95;80.95;99223.72;5020091;28;20393;-56
2021/10/23 09:34:23;;;;;;;3.72;1.42;;;;;;;10.44;71.07;99245.69;5017063;28;20605;-56
2021/10/23 09:37:36;;;;;;;4.00;1.38;;;;;;;10.58;71.35;99247.13;5016610;28;21478;-57
2021/10/23 09:40:08;;;;;;;4.78;1.40;;;;;;;10.40;71.39;99200.09;5000919;28;20045;-57
2021/10/23 09:42:33;;;;;;;4.82;1.80;;;;;;;10.70;69.44;99256.50;5018589;28;20067;-57
2021/10/23 09:45:05;;;;;;;4.30;1.63;;;;;;;10.67;68.16;99225.53;5020374;28;20443;-56
2021/10/23 09:47:42;;;;;;;7.90;2.28;;;;;;;10.88;68.46;99242.84;5009811;28;20097;-56
2021/10/23 09:50:12;;;;;;;5.35;1.88;;;;;;;10.98;66.56;99246.34;5017228;28;20072;-57
2021/10/23 09:52:54;;;;;;;4.82;1.80;;;;;;;11.01;67.75;99243.47;5029720;28;20096;-57
2021/10/23 09:55:19;;;;;;;4.90;1.58;;;;;;;11.08;67.97;99241.16;4965590;28;20246;-57
2021/10/23 09:57:48;;;;;;;4.18;1.65;;;;;;;11.15;67.03;99242.25;4988740;28;20026;-56
2021/10/23 10:00:13;;;;;;;4.38;1.60;;;;;;;11.23;63.88;99239.03;5015832;28;20036;-56
2021/10/23 10:02:39;;;;;;;5.35;1.70;;;;;;;11.27;66.23;99241.22;5010904;28;20022;-56
2021/10/23 10:05:05;;;;;;;5.05;2.10;;;;;;;11.35;66.96;99246.59;5005091;28;20040;-56
2021/10/23 10:07:32;;;;;;;5.03;2.05;;;;;;;11.45;68.05;99244.00;5016128;28;20029;-57
2021/10/23 10:09:58;;;;;;;3.85;1.48;;;;;;;11.49;65.61;99253.16;5017387;28;20655;-56
2021/10/23 10:12:24;;;;;;;5.38;1.77;;;;;;;11.37;65.00;99216.97;5011351;28;20028;-56
2021/10/23 10:14:50;;;;;;;4.38;1.70;;;;;;;11.68;65.08;99252.38;5013956;28;20428;-56
2021/10/23 10:17:16;;;;;;;4.03;1.73;;;;;;;11.90;65.44;99260.91;5022513;28;20114;-56
2021/10/23 10:19:41;;;;;;;4.05;1.50;;;;;;;11.88;64.47;99254.97;5016069;28;20038;-57
2021/10/23 10:22:10;;;;;;;4.70;1.70;;;;;;;12.02;64.83;99264.22;5020796;28;20090;-57
2021/10/23 10:28:10;;;;;;;3.67;1.60;;;;;;;11.86;59.68;99215.22;5019018;28;20048;-57
2021/10/23 10:30:38;;;;;;;5.07;1.38;;;;;;;12.17;59.11;99239.34;4990121;28;20152;-56
2021/10/23 10:33:26;;;;;;;4.72;1.83;;;;;;;12.39;60.41;99246.03;5014299;28;20032;-55
2021/10/23 10:36:16;;;;;;;4.65;1.77;;;;;;;12.22;61.69;99205.88;5020250;28;20122;-56
2021/10/23 10:38:54;;;;;;;4.20;1.67;;;;;;;12.20;61.10;99199.97;5020916;28;20552;-57
2021/10/23 10:44:12;;;;;;;5.82;2.13;;;;;;;12.76;61.81;99244.41;4994992;28;20151;-56
2021/10/23 10:46:56;;;;;;;4.65;1.90;;;;;;;12.76;62.79;99234.81;5021718;28;20029;-57
2021/10/23 10:49:42;;;;;;;4.72;2.00;;;;;;;12.75;61.95;99229.75;5021346;28;20032;-57
2021/10/23 10:52:40;;;;;;;4.70;2.05;;;;;;;12.93;63.83;99235.84;5017804;28;20112;-55
2021/10/23 10:55:10;;;;;;;4.32;1.70;;;;;;;12.98;64.98;99232.81;5004992;28;20082;-56
2021/10/23 10:58:05;;;;;;;4.47;1.80;;;;;;;12.96;62.21;99219.06;5004673;28;20018;-57
2021/10/23 11:00:46;;;;;;;4.95;2.10;;;;;;;13.12;63.68;99228.88;5019344;28;20113;-56
2021/10/23 11:03:37;;;;;;;4.47;1.75;;;;;;;13.08;66.47;99231.78;5013069;28;20030;-56
2021/10/23 11:06:33;;;;;;;4.88;2.30;;;;;;;13.20;65.29;99226.38;5004981;28;20087;-56
2021/10/23 11:09:11;;;;;;;6.40;2.63;;;;;;;13.25;65.35;99217.13;5009394;28;20374;-57
2021/10/23 11:11:59;;;;;;;6.53;3.15;;;;;;;13.24;67.27;99223.31;5015781;28;20563;-56
2021/10/23 11:14:27;;;;;;;19.48;9.73;;;;;;;13.31;69.82;99214.94;5011013;28;20068;-57
2021/10/23 11:17:00;;;;;;;41.92;25.90;;;;;;;13.26;74.31;99192.63;5034095;28;20055;-56
2021/10/23 11:19:42;;;;;;;41.35;26.58;;;;;;;13.59;75.02;99216.50;5014761;28;20021;-56
2021/10/23 11:22:32;;;;;;;38.67;25.13;;;;;;;13.77;75.06;99213.88;5021727;28;20040;-56
2021/10/23 11:25:05;;;;;;;42.50;26.45;;;;;;;13.95;74.68;99220.91;5027352;28;20036;-57
2021/10/23 11:27:40;;;;;;;40.45;24.65;;;;;;;14.02;74.12;99212.28;5029718;28;20038;-58
2021/10/23 11:30:22;;;;;;;38.20;24.58;;;;;;;14.10;73.57;99205.47;5014492;28;20078;-58
2021/10/23 11:32:58;;;;;;;37.25;23.75;;;;;;;14.25;72.59;99198.72;5015816;28;20124;-58
2021/10/23 11:35:33;;;;;;;34.33;22.65;;;;;;;14.15;72.93;99174.47;5017125;28;20026;-58
2021/10/23 11:38:00;;;;;;;35.50;23.05;;;;;;;14.33;72.32;99200.53;5015945;28;20029;-58
2021/10/23 11:40:25;;;;;;;35.00;22.27;;;;;;;14.39;72.29;99208.59;5016752;28;20084;-58
2021/10/23 11:42:52;;;;;;;33.95;22.17;;;;;;;14.39;72.05;99200.75;5017574;28;20435;-58
2021/10/23 11:45:38;;;;;;;37.00;23.02;;;;;;;14.49;72.07;99197.22;5005019;28;20037;-57
2021/10/23 11:48:08;;;;;;;32.65;20.45;;;;;;;14.54;71.78;99192.34;5008346;28;20052;-57
2021/10/23 11:50:36;;;;;;;31.90;21.25;;;;;;;14.66;71.33;99190.28;5019001;28;20033;-57
2021/10/23 11:53:23;;;;;;;32.67;21.67;;;;;;;14.54;71.18;99166.16;5019563;28;20021;-57
2021/10/23 11:55:55;;;;;;;33.80;22.98;;;;;;;14.71;71.27;99191.47;5028660;28;20136;-57
2021/10/23 11:58:25;;;;;;;35.47;23.33;;;;;;;14.71;70.79;99177.56;5000544;28;20559;-57
2021/10/23 12:01:02;;;;;;;34.00;22.35;;;;;;;14.85;70.79;99195.28;5022546;28;20040;-58
2021/10/23 12:03:43;;;;;;;34.70;23.17;;;;;;;14.65;70.53;99155.44;5018408;28;20091;-58
2021/10/23 12:06:16;;;;;;;34.33;23.23;;;;;;;15.02;70.66;99193.53;5015235;28;20033;-57
2021/10/23 12:08:42;;;;;;;36.13;23.77;;;;;;;15.08;70.17;99192.91;5019950;28;20060;-58
2021/10/23 12:11:13;;;;;;;37.50;23.98;;;;;;;14.95;69.55;99146.25;5019921;28;20029;-58
2021/10/23 12:13:51;;;;;;;36.15;25.10;;;;;;;15.21;69.69;99181.16;5033096;28;20421;-58
2021/10/23 12:16:29;;;;;;;39.88;24.23;;;;;;;15.33;69.42;99183.31;5013693;28;20032;-58